sensor_id;sensor_type;location;lat;lon;timestamp;pressure;altitude;pressure_sealevel;temperature;humidity
34738;BME280;39910;47.154;27.614;2022-12-18T00:01:57;101673.66;;;1.92;100.00
34738;BME280;39910;47.154;27.614;2022-12-18T00:04:25;101680.69;;;1.92;100.00
34738;BME280;39910;47.154;27.614;2022-12-18T00:06:51;101662.78;;;1.70;100.00
34738;BME280;39910;47.154;27.614;2022-12-18T00:09:17;101682.63;;;1.88;100.00
34738;BME280;39910;47.154;27.614;2022-12-18T00:11:42;101694.03;;;2.02;100.00
34738;BME280;39910;47.154;27.614;2022-12-18T00:14:09;101694.59;;;1.92;100.00
34738;BME280;39910;47.154;27.614;2022-12-18T00:16:35;101702.53;;;2.05;100.00
34738;BME280;39910;47.154;27.614;2022-12-18T00:19:03;101701.75;;;1.89;100.00
34738;BME280;39910;47.154;27.614;2022-12-18T00:21:29;101715.44;;;1.94;100.00
34738;BME280;39910;47.154;27.614;2022-12-18T00:23:55;101723.78;;;2.01;100.00
34738;BME280;39910;47.154;27.614;2022-12-18T00:26:32;101733.50;;;1.99;100.00
34738;BME280;39910;47.154;27.614;2022-12-18T00:29:00;101725.81;;;1.96;100.00
34738;BME280;39910;47.154;27.614;2022-12-18T00:31:27;101739.81;;;1.94;100.00
34738;BME280;39910;47.154;27.614;2022-12-18T00:33:54;101737.56;;;1.58;100.00
34738;BME280;39910;47.154;27.614;2022-12-18T00:36:24;101750.53;;;1.90;100.00
34738;BME280;39910;47.154;27.614;2022-12-18T00:38:50;101738.09;;;1.79;100.00
34738;BME280;39910;47.154;27.614;2022-12-18T00:41:17;101739.09;;;1.92;100.00
34738;BME280;39910;47.154;27.614;2022-12-18T00:44:02;101753.66;;;1.97;100.00
34738;BME280;39910;47.154;27.614;2022-12-18T00:46:28;101750.84;;;1.85;100.00
34738;BME280;39910;47.154;27.614;2022-12-18T00:48:54;101747.44;;;1.83;100.00
34738;BME280;39910;47.154;27.614;2022-12-18T00:51:19;101755.03;;;1.88;100.00
34738;BME280;39910;47.154;27.614;2022-12-18T00:53:46;101746.44;;;1.56;100.00
34738;BME280;39910;47.154;27.614;2022-12-18T00:56:11;101729.94;;;1.54;100.00
34738;BME280;39910;47.154;27.614;2022-12-18T00:58:37;101740.41;;;1.54;100.00
34738;BME280;39910;47.154;27.614;2022-12-18T01:01:06;101751.31;;;1.46;100.00
34738;BME280;39910;47.154;27.614;2022-12-18T01:03:31;101738.09;;;1.18;100.00
34738;BME280;39910;47.154;27.614;2022-12-18T01:05:57;101754.75;;;1.47;100.00
34738;BME280;39910;47.154;27.614;2022-12-18T01:08:23;101748.78;;;1.45;100.00
34738;BME280;39910;47.154;27.614;2022-12-18T01:10:48;101765.41;;;1.44;100.00
34738;BME280;39910;47.154;27.614;2022-12-18T01:13:14;101765.50;;;1.26;100.00
34738;BME280;39910;47.154;27.614;2022-12-18T01:15:39;101756.22;;;1.05;100.00
34738;BME280;39910;47.154;27.614;2022-12-18T01:18:06;101751.00;;;1.05;100.00
34738;BME280;39910;47.154;27.614;2022-12-18T01:20:32;101746.69;;;1.04;100.00
34738;BME280;39910;47.154;27.614;2022-12-18T01:22:57;101763.78;;;1.09;100.00
34738;BME280;39910;47.154;27.614;2022-12-18T01:25:23;101766.16;;;1.14;100.00
34738;BME280;39910;47.154;27.614;2022-12-18T01:27:48;101769.69;;;0.81;100.00
34738;BME280;39910;47.154;27.614;2022-12-18T01:30:14;101781.72;;;0.84;100.00
34738;BME280;39910;47.154;27.614;2022-12-18T01:32:39;101768.97;;;0.78;100.00
34738;BME280;39910;47.154;27.614;2022-12-18T01:35:05;101775.09;;;0.61;100.00
34738;BME280;39910;47.154;27.614;2022-12-18T01:37:31;101781.19;;;0.77;100.00
34738;BME280;39910;47.154;27.614;2022-12-18T01:39:57;101775.31;;;0.74;100.00
34738;BME280;39910;47.154;27.614;2022-12-18T01:42:23;101763.13;;;0.57;100.00
34738;BME280;39910;47.154;27.614;2022-12-18T01:52:52;101780.97;;;0.32;100.00
34738;BME280;39910;47.154;27.614;2022-12-18T01:55:22;101780.28;;;0.28;100.00
34738;BME280;39910;47.154;27.614;2022-12-18T01:57:52;101792.47;;;0.27;100.00
34738;BME280;39910;47.154;27.614;2022-12-18T02:00:20;101781.53;;;0.04;100.00
34738;BME280;39910;47.154;27.614;2022-12-18T02:02:47;101778.13;;;0.19;100.00
34738;BME280;39910;47.154;27.614;2022-12-18T02:05:19;101788.03;;;0.12;100.00
34738;BME280;39910;47.154;27.614;2022-12-18T02:10:46;101797.53;;;0.13;100.00
34738;BME280;39910;47.154;27.614;2022-12-18T02:13:27;101798.22;;;-0.01;100.00
34738;BME280;39910;47.154;27.614;2022-12-18T02:16:51;101799.63;;;0.07;100.00
34738;BME280;39910;47.154;27.614;2022-12-18T02:18:59;101803.16;;;0.06;100.00
34738;BME280;39910;47.154;27.614;2022-12-18T02:25:20;101811.50;;;-0.05;100.00
34738;BME280;39910;47.154;27.614;2022-12-18T02:27:27;101816.06;;;0.09;100.00
34738;BME280;39910;47.154;27.614;2022-12-18T02:29:55;101820.66;;;0.04;100.00
34738;BME280;39910;47.154;27.614;2022-12-18T02:32:28;101814.41;;;-0.11;100.00
34738;BME280;39910;47.154;27.614;2022-12-18T02:34:57;101829.69;;;-0.04;100.00
34738;BME280;39910;47.154;27.614;2022-12-18T02:37:25;101828.84;;;-0.04;100.00
34738;BME280;39910;47.154;27.614;2022-12-18T02:39:55;101824.78;;;-0.10;100.00
34738;BME280;39910;47.154;27.614;2022-12-18T02:42:22;101835.97;;;-0.08;100.00
34738;BME280;39910;47.154;27.614;2022-12-18T02:44:50;101839.31;;;-0.23;100.00
34738;BME280;39910;47.154;27.614;2022-12-18T02:47:18;101842.19;;;-0.10;100.00
34738;BME280;39910;47.154;27.614;2022-12-18T02:55:26;101860.88;;;-0.19;100.00
34738;BME280;39910;47.154;27.614;2022-12-18T03:03:39;101854.34;;;-0.28;100.00
34738;BME280;39910;47.154;27.614;2022-12-18T03:06:10;101873.44;;;-0.28;100.00
34738;BME280;39910;47.154;27.614;2022-12-18T03:08:40;101878.06;;;-0.15;100.00
34738;BME280;39910;47.154;27.614;2022-12-18T03:11:09;101885.97;;;-0.17;100.00
34738;BME280;39910;47.154;27.614;2022-12-18T03:13:47;101885.47;;;-0.06;100.00
34738;BME280;39910;47.154;27.614;2022-12-18T03:16:19;101887.84;;;-0.02;100.00
34738;BME280;39910;47.154;27.614;2022-12-18T03:18:51;101889.41;;;0.03;100.00
34738;BME280;39910;47.154;27.614;2022-12-18T03:21:20;101886.88;;;-0.18;100.00
34738;BME280;39910;47.154;27.614;2022-12-18T03:23:48;101894.16;;;-0.24;100.00
34738;BME280;39910;47.154;27.614;2022-12-18T03:26:18;101911.13;;;0.03;100.00
34738;BME280;39910;47.154;27.614;2022-12-18T03:28:56;101909.72;;;-0.04;100.00
34738;BME280;39910;47.154;27.614;2022-12-18T03:31:24;101909.06;;;-0.09;100.00
34738;BME280;39910;47.154;27.614;2022-12-18T03:33:57;101918.38;;;-0.04;100.00
34738;BME280;39910;47.154;27.614;2022-12-18T03:36:25;101909.06;;;-0.09;100.00
34738;BME280;39910;47.154;27.614;2022-12-18T03:38:51;101919.88;;;0.02;100.00
34738;BME280;39910;47.154;27.614;2022-12-18T03:47:13;101949.59;;;-0.02;100.00
34738;BME280;39910;47.154;27.614;2022-12-18T03:49:28;101945.19;;;0.00;100.00
34738;BME280;39910;47.154;27.614;2022-12-18T03:52:07;101945.47;;;-0.06;100.00
34738;BME280;39910;47.154;27.614;2022-12-18T03:54:35;101956.38;;;0.02;100.00
34738;BME280;39910;47.154;27.614;2022-12-18T03:57:14;101963.66;;;-0.05;100.00
34738;BME280;39910;47.154;27.614;2022-12-18T03:59:43;101968.72;;;-0.02;100.00
34738;BME280;39910;47.154;27.614;2022-12-18T04:02:09;101972.13;;;0.01;100.00
34738;BME280;39910;47.154;27.614;2022-12-18T04:04:39;101968.56;;;-0.17;100.00
34738;BME280;39910;47.154;27.614;2022-12-18T04:07:06;101981.84;;;-0.03;100.00
34738;BME280;39910;47.154;27.614;2022-12-18T04:09:32;101988.75;;;-0.02;100.00
34738;BME280;39910;47.154;27.614;2022-12-18T04:11:59;101982.63;;;-0.20;100.00
34738;BME280;39910;47.154;27.614;2022-12-18T04:14:24;101995.22;;;-0.11;100.00
34738;BME280;39910;47.154;27.614;2022-12-18T04:16:50;101997.47;;;-0.03;100.00
34738;BME280;39910;47.154;27.614;2022-12-18T04:19:16;102013.56;;;-0.12;100.00
34738;BME280;39910;47.154;27.614;2022-12-18T04:21:41;102000.53;;;-0.12;100.00
34738;BME280;39910;47.154;27.614;2022-12-18T04:24:07;102017.84;;;-0.11;100.00
34738;BME280;39910;47.154;27.614;2022-12-18T04:26:33;102016.59;;;-0.03;100.00
34738;BME280;39910;47.154;27.614;2022-12-18T04:28:59;102021.59;;;0.02;100.00
34738;BME280;39910;47.154;27.614;2022-12-18T04:31:25;102031.28;;;0.00;100.00
34738;BME280;39910;47.154;27.614;2022-12-18T04:33:50;102016.50;;;-0.01;100.00
34738;BME280;39910;47.154;27.614;2022-12-18T04:36:16;102023.75;;;-0.08;100.00
34738;BME280;39910;47.154;27.614;2022-12-18T04:38:41;102033.25;;;-0.05;100.00
34738;BME280;39910;47.154;27.614;2022-12-18T04:41:07;102021.72;;;-0.01;100.00
34738;BME280;39910;47.154;27.614;2022-12-18T04:43:32;102025.97;;;0.02;100.00
34738;BME280;39910;47.154;27.614;2022-12-18T04:46:05;102032.41;;;-0.06;100.00
34738;BME280;39910;47.154;27.614;2022-12-18T04:48:31;102050.66;;;-0.06;100.00
34738;BME280;39910;47.154;27.614;2022-12-18T04:50:57;102043.25;;;0.04;100.00
34738;BME280;39910;47.154;27.614;2022-12-18T04:53:23;102053.25;;;-0.06;100.00
34738;BME280;39910;47.154;27.614;2022-12-18T04:55:48;102049.31;;;-0.14;100.00
34738;BME280;39910;47.154;27.614;2022-12-18T04:58:14;102034.31;;;-0.30;100.00
34738;BME280;39910;47.154;27.614;2022-12-18T05:00:40;102063.81;;;-0.28;100.00
34738;BME280;39910;47.154;27.614;2022-12-18T05:03:05;102081.63;;;-0.18;100.00
34738;BME280;39910;47.154;27.614;2022-12-18T05:05:30;102093.56;;;-0.13;100.00
34738;BME280;39910;47.154;27.614;2022-12-18T05:07:56;102091.03;;;-0.14;100.00
34738;BME280;39910;47.154;27.614;2022-12-18T05:10:22;102087.00;;;-0.21;100.00
34738;BME280;39910;47.154;27.614;2022-12-18T05:12:47;102097.16;;;-0.15;100.00
34738;BME280;39910;47.154;27.614;2022-12-18T05:15:32;102111.09;;;-0.16;100.00
34738;BME280;39910;47.154;27.614;2022-12-18T05:17:58;102092.31;;;-0.43;100.00
34738;BME280;39910;47.154;27.614;2022-12-18T05:20:24;102095.88;;;-0.46;100.00
34738;BME280;39910;47.154;27.614;2022-12-18T05:22:51;102102.66;;;-0.42;100.00
34738;BME280;39910;47.154;27.614;2022-12-18T05:25:17;102109.63;;;-0.42;100.00
34738;BME280;39910;47.154;27.614;2022-12-18T05:27:43;102119.91;;;-0.39;100.00
34738;BME280;39910;47.154;27.614;2022-12-18T05:30:09;102130.09;;;-0.33;100.00
34738;BME280;39910;47.154;27.614;2022-12-18T05:32:35;102135.75;;;-0.23;100.00
34738;BME280;39910;47.154;27.614;2022-12-18T05:35:04;102137.25;;;-0.18;100.00
34738;BME280;39910;47.154;27.614;2022-12-18T05:37:30;102149.19;;;-0.12;100.00
34738;BME280;39910;47.154;27.614;2022-12-18T05:39:55;102149.06;;;-0.09;100.00
34738;BME280;39910;47.154;27.614;2022-12-18T05:42:21;102150.88;;;-0.11;100.00
34738;BME280;39910;47.154;27.614;2022-12-18T05:44:46;102158.03;;;-0.16;100.00
34738;BME280;39910;47.154;27.614;2022-12-18T05:47:12;102155.31;;;-0.13;100.00
34738;BME280;39910;47.154;27.614;2022-12-18T05:49:38;102161.25;;;-0.10;100.00
34738;BME280;39910;47.154;27.614;2022-12-18T05:52:03;102160.03;;;-0.21;100.00
34738;BME280;39910;47.154;27.614;2022-12-18T05:54:29;102172.91;;;0.02;100.00
34738;BME280;39910;47.154;27.614;2022-12-18T05:56:55;102180.88;;;-0.01;100.00
34738;BME280;39910;47.154;27.614;2022-12-18T05:59:20;102184.06;;;0.06;100.00
34738;BME280;39910;47.154;27.614;2022-12-18T06:01:46;102188.84;;;0.16;100.00
34738;BME280;39910;47.154;27.614;2022-12-18T06:04:11;102176.88;;;0.11;100.00
34738;BME280;39910;47.154;27.614;2022-12-18T06:06:37;102197.34;;;0.20;100.00
34738;BME280;39910;47.154;27.614;2022-12-18T06:09:03;102214.38;;;0.28;100.00
34738;BME280;39910;47.154;27.614;2022-12-18T06:11:35;102216.88;;;0.32;100.00
34738;BME280;39910;47.154;27.614;2022-12-18T06:14:02;102215.41;;;0.45;100.00
34738;BME280;39910;47.154;27.614;2022-12-18T06:16:29;102219.91;;;0.41;100.00
34738;BME280;39910;47.154;27.614;2022-12-18T06:18:59;102225.00;;;0.44;100.00
34738;BME280;39910;47.154;27.614;2022-12-18T06:21:27;102222.69;;;0.18;100.00
34738;BME280;39910;47.154;27.614;2022-12-18T06:23:53;102222.72;;;0.37;100.00
34738;BME280;39910;47.154;27.614;2022-12-18T06:26:18;102242.81;;;0.14;100.00
34738;BME280;39910;47.154;27.614;2022-12-18T06:28:44;102238.09;;;0.43;100.00
34738;BME280;39910;47.154;27.614;2022-12-18T06:31:10;102236.16;;;0.27;100.00
34738;BME280;39910;47.154;27.614;2022-12-18T06:33:37;102241.88;;;0.17;100.00
34738;BME280;39910;47.154;27.614;2022-12-18T06:36:11;102239.78;;;0.25;100.00
34738;BME280;39910;47.154;27.614;2022-12-18T06:38:39;102247.53;;;0.26;100.00
34738;BME280;39910;47.154;27.614;2022-12-18T06:41:15;102243.63;;;0.16;100.00
34738;BME280;39910;47.154;27.614;2022-12-18T06:43:41;102238.84;;;0.06;100.00
34738;BME280;39910;47.154;27.614;2022-12-18T06:46:07;102262.94;;;0.33;100.00
34738;BME280;39910;47.154;27.614;2022-12-18T06:48:32;102264.63;;;0.54;100.00
34738;BME280;39910;47.154;27.614;2022-12-18T06:50:58;102272.59;;;0.31;100.00
34738;BME280;39910;47.154;27.614;2022-12-18T06:53:24;102276.97;;;0.30;100.00
34738;BME280;39910;47.154;27.614;2022-12-18T06:55:50;102280.22;;;0.35;100.00
34738;BME280;39910;47.154;27.614;2022-12-18T06:58:16;102291.25;;;0.42;100.00
34738;BME280;39910;47.154;27.614;2022-12-18T07:00:42;102304.47;;;0.58;100.00
34738;BME280;39910;47.154;27.614;2022-12-18T07:03:08;102289.88;;;0.33;100.00
34738;BME280;39910;47.154;27.614;2022-12-18T07:05:33;102298.28;;;0.60;100.00
34738;BME280;39910;47.154;27.614;2022-12-18T07:07:59;102305.97;;;0.63;100.00
34738;BME280;39910;47.154;27.614;2022-12-18T07:10:25;102306.97;;;0.61;100.00
34738;BME280;39910;47.154;27.614;2022-12-18T07:12:50;102292.31;;;0.38;100.00
34738;BME280;39910;47.154;27.614;2022-12-18T07:15:16;102306.13;;;0.60;100.00
34738;BME280;39910;47.154;27.614;2022-12-18T07:17:41;102310.16;;;0.67;100.00
34738;BME280;39910;47.154;27.614;2022-12-18T07:20:07;102311.59;;;0.74;100.00
34738;BME280;39910;47.154;27.614;2022-12-18T07:22:33;102314.63;;;0.84;100.00
34738;BME280;39910;47.154;27.614;2022-12-18T07:24:59;102316.72;;;0.96;100.00
34738;BME280;39910;47.154;27.614;2022-12-18T07:27:24;102327.31;;;1.12;100.00
34738;BME280;39910;47.154;27.614;2022-12-18T07:29:50;102330.56;;;1.55;100.00
34738;BME280;39910;47.154;27.614;2022-12-18T07:32:15;102318.78;;;1.27;100.00
34738;BME280;39910;47.154;27.614;2022-12-18T07:34:41;102333.59;;;1.46;100.00
34738;BME280;39910;47.154;27.614;2022-12-18T07:37:06;102347.22;;;2.07;100.00
34738;BME280;39910;47.154;27.614;2022-12-18T07:39:32;102329.75;;;1.72;100.00
34738;BME280;39910;47.154;27.614;2022-12-18T07:41:57;102327.13;;;2.25;100.00
34738;BME280;39910;47.154;27.614;2022-12-18T07:44:41;102337.03;;;4.58;100.00
34738;BME280;39910;47.154;27.614;2022-12-18T07:47:07;102315.19;;;2.54;100.00
34738;BME280;39910;47.154;27.614;2022-12-18T07:49:32;102339.50;;;5.04;100.00
34738;BME280;39910;47.154;27.614;2022-12-18T07:51:58;102347.41;;;5.04;100.00
34738;BME280;39910;47.154;27.614;2022-12-18T07:54:24;102335.09;;;4.32;100.00
34738;BME280;39910;47.154;27.614;2022-12-18T07:56:50;102355.50;;;5.57;100.00
34738;BME280;39910;47.154;27.614;2022-12-18T07:59:15;102350.19;;;6.12;100.00
34738;BME280;39910;47.154;27.614;2022-12-18T08:01:41;102362.44;;;5.16;100.00
34738;BME280;39910;47.154;27.614;2022-12-18T08:04:06;102374.06;;;5.26;100.00
34738;BME280;39910;47.154;27.614;2022-12-18T08:06:32;102380.94;;;3.80;100.00
34738;BME280;39910;47.154;27.614;2022-12-18T08:08:57;102381.47;;;3.71;100.00
34738;BME280;39910;47.154;27.614;2022-12-18T08:11:25;102380.06;;;2.99;100.00
34738;BME280;39910;47.154;27.614;2022-12-18T08:13:51;102387.84;;;2.51;100.00
34738;BME280;39910;47.154;27.614;2022-12-18T08:16:19;102381.81;;;2.31;100.00
34738;BME280;39910;47.154;27.614;2022-12-18T08:18:45;102373.53;;;2.04;100.00
34738;BME280;39910;47.154;27.614;2022-12-18T08:21:33;102391.81;;;2.23;100.00
34738;BME280;39910;47.154;27.614;2022-12-18T08:24:00;102398.13;;;1.83;100.00
34738;BME280;39910;47.154;27.614;2022-12-18T08:26:28;102402.00;;;1.74;100.00
34738;BME280;39910;47.154;27.614;2022-12-18T08:28:56;102395.28;;;1.31;100.00
34738;BME280;39910;47.154;27.614;2022-12-18T08:31:23;102406.44;;;1.55;100.00
34738;BME280;39910;47.154;27.614;2022-12-18T08:33:49;102404.69;;;1.54;100.00
34738;BME280;39910;47.154;27.614;2022-12-18T08:36:16;102391.41;;;1.39;100.00
34738;BME280;39910;47.154;27.614;2022-12-18T08:38:42;102392.19;;;1.02;100.00
34738;BME280;39910;47.154;27.614;2022-12-18T08:41:09;102404.06;;;0.91;100.00
34738;BME280;39910;47.154;27.614;2022-12-18T08:43:36;102403.13;;;0.92;100.00
34738;BME280;39910;47.154;27.614;2022-12-18T08:46:22;102419.41;;;0.98;100.00
34738;BME280;39910;47.154;27.614;2022-12-18T08:48:51;102390.63;;;0.59;100.00
34738;BME280;39910;47.154;27.614;2022-12-18T08:51:18;102402.09;;;0.75;100.00
34738;BME280;39910;47.154;27.614;2022-12-18T08:53:45;102401.84;;;0.81;100.00
34738;BME280;39910;47.154;27.614;2022-12-18T08:56:11;102406.06;;;0.84;100.00
34738;BME280;39910;47.154;27.614;2022-12-18T08:58:38;102405.50;;;0.98;100.00
34738;BME280;39910;47.154;27.614;2022-12-18T09:01:07;102421.56;;;0.89;100.00
34738;BME280;39910;47.154;27.614;2022-12-18T09:03:34;102418.56;;;0.98;100.00
34738;BME280;39910;47.154;27.614;2022-12-18T09:05:59;102421.03;;;0.80;100.00
34738;BME280;39910;47.154;27.614;2022-12-18T09:08:25;102415.34;;;0.91;100.00
34738;BME280;39910;47.154;27.614;2022-12-18T09:10:51;102419.41;;;0.98;100.00
34738;BME280;39910;47.154;27.614;2022-12-18T09:13:17;102417.38;;;0.85;100.00
34738;BME280;39910;47.154;27.614;2022-12-18T09:15:45;102420.00;;;0.85;100.00
34738;BME280;39910;47.154;27.614;2022-12-18T09:18:13;102417.78;;;0.75;100.00
34738;BME280;39910;47.154;27.614;2022-12-18T09:20:39;102422.34;;;0.70;100.00
34738;BME280;39910;47.154;27.614;2022-12-18T09:23:05;102430.03;;;0.94;100.00
34738;BME280;39910;47.154;27.614;2022-12-18T09:25:32;102440.03;;;0.84;100.00
34738;BME280;39910;47.154;27.614;2022-12-18T09:27:59;102436.44;;;0.87;100.00
34738;BME280;39910;47.154;27.614;2022-12-18T09:30:26;102438.63;;;0.97;100.00
34738;BME280;39910;47.154;27.614;2022-12-18T09:32:51;102434.22;;;0.98;100.00
34738;BME280;39910;47.154;27.614;2022-12-18T09:35:20;102436.97;;;0.74;100.00
34738;BME280;39910;47.154;27.614;2022-12-18T09:37:46;102437.03;;;0.73;100.00
34738;BME280;39910;47.154;27.614;2022-12-18T09:40:17;102428.28;;;0.74;100.00
34738;BME280;39910;47.154;27.614;2022-12-18T09:42:46;102442.13;;;0.76;100.00
34738;BME280;39910;47.154;27.614;2022-12-18T09:45:16;102438.78;;;0.72;100.00
34738;BME280;39910;47.154;27.614;2022-12-18T09:47:43;102428.72;;;0.63;100.00
34738;BME280;39910;47.154;27.614;2022-12-18T09:50:25;102450.19;;;0.49;100.00
34738;BME280;39910;47.154;27.614;2022-12-18T09:52:56;102446.47;;;0.55;100.00
34738;BME280;39910;47.154;27.614;2022-12-18T09:55:36;102472.41;;;0.80;100.00
34738;BME280;39910;47.154;27.614;2022-12-18T09:58:28;102463.94;;;0.75;100.00
34738;BME280;39910;47.154;27.614;2022-12-18T10:00:55;102470.66;;;0.80;100.00
34738;BME280;39910;47.154;27.614;2022-12-18T10:03:21;102476.56;;;0.86;100.00
34738;BME280;39910;47.154;27.614;2022-12-18T10:08:54;102477.47;;;0.85;100.00
34738;BME280;39910;47.154;27.614;2022-12-18T10:14:26;102482.03;;;0.37;100.00
34738;BME280;39910;47.154;27.614;2022-12-18T10:25:47;102508.00;;;0.62;100.00
34738;BME280;39910;47.154;27.614;2022-12-18T10:28:15;102511.06;;;0.30;100.00
34738;BME280;39910;47.154;27.614;2022-12-18T10:30:43;102518.50;;;0.17;100.00
34738;BME280;39910;47.154;27.614;2022-12-18T10:33:20;102513.66;;;0.30;100.00
34738;BME280;39910;47.154;27.614;2022-12-18T10:35:47;102515.22;;;0.34;100.00
34738;BME280;39910;47.154;27.614;2022-12-18T10:41:03;102522.88;;;0.38;100.00
34738;BME280;39910;47.154;27.614;2022-12-18T10:43:34;102524.81;;;0.55;100.00
34738;BME280;39910;47.154;27.614;2022-12-18T10:48:32;102530.94;;;0.32;100.00
34738;BME280;39910;47.154;27.614;2022-12-18T10:50:59;102531.88;;;0.53;100.00
34738;BME280;39910;47.154;27.614;2022-12-18T10:53:28;102530.03;;;0.33;100.00
34738;BME280;39910;47.154;27.614;2022-12-18T10:55:55;102529.78;;;0.17;100.00
34738;BME280;39910;47.154;27.614;2022-12-18T10:58:30;102494.47;;;0.09;100.00
34738;BME280;39910;47.154;27.614;2022-12-18T11:01:16;102542.78;;;0.41;100.00
34738;BME280;39910;47.154;27.614;2022-12-18T11:06:21;102550.06;;;0.33;100.00
34738;BME280;39910;47.154;27.614;2022-12-18T11:09:19;102562.50;;;0.26;100.00
34738;BME280;39910;47.154;27.614;2022-12-18T11:11:55;102535.69;;;0.22;100.00
34738;BME280;39910;47.154;27.614;2022-12-18T11:14:30;102549.88;;;0.15;100.00
34738;BME280;39910;47.154;27.614;2022-12-18T11:16:58;102541.38;;;0.10;100.00
34738;BME280;39910;47.154;27.614;2022-12-18T11:19:36;102545.53;;;0.14;100.00
34738;BME280;39910;47.154;27.614;2022-12-18T11:22:17;102551.56;;;0.16;100.00
34738;BME280;39910;47.154;27.614;2022-12-18T11:27:20;102561.72;;;0.24;100.00
34738;BME280;39910;47.154;27.614;2022-12-18T11:30:09;102541.16;;;-0.07;100.00
34738;BME280;39910;47.154;27.614;2022-12-18T11:32:43;102558.94;;;0.05;100.00
34738;BME280;39910;47.154;27.614;2022-12-18T11:35:25;102577.38;;;0.24;100.00
34738;BME280;39910;47.154;27.614;2022-12-18T11:37:58;102562.44;;;0.27;100.00
34738;BME280;39910;47.154;27.614;2022-12-18T11:40:35;102568.88;;;0.19;100.00
34738;BME280;39910;47.154;27.614;2022-12-18T11:43:53;102571.25;;;0.25;100.00
34738;BME280;39910;47.154;27.614;2022-12-18T11:46:33;102554.50;;;0.31;100.00
34738;BME280;39910;47.154;27.614;2022-12-18T11:49:28;102569.03;;;0.38;100.00
34738;BME280;39910;47.154;27.614;2022-12-18T11:52:03;102570.72;;;0.39;100.00
34738;BME280;39910;47.154;27.614;2022-12-18T11:54:31;102577.75;;;0.37;100.00
34738;BME280;39910;47.154;27.614;2022-12-18T11:57:19;102583.56;;;0.21;100.00
34738;BME280;39910;47.154;27.614;2022-12-18T12:16:32;102597.44;;;0.22;100.00
34738;BME280;39910;47.154;27.614;2022-12-18T12:19:11;102604.63;;;0.17;100.00
34738;BME280;39910;47.154;27.614;2022-12-18T12:21:51;102607.38;;;0.12;100.00
34738;BME280;39910;47.154;27.614;2022-12-18T12:38:09;102627.41;;;0.12;100.00
34738;BME280;39910;47.154;27.614;2022-12-18T12:40:47;102621.63;;;0.27;100.00
34738;BME280;39910;47.154;27.614;2022-12-18T12:43:27;102630.81;;;0.14;100.00
34738;BME280;39910;47.154;27.614;2022-12-18T12:46:02;102631.78;;;0.11;100.00
34738;BME280;39910;47.154;27.614;2022-12-18T12:48:40;102640.63;;;0.07;100.00
34738;BME280;39910;47.154;27.614;2022-12-18T12:51:21;102631.59;;;-0.08;100.00
34738;BME280;39910;47.154;27.614;2022-12-18T12:53:47;102638.06;;;0.06;100.00
34738;BME280;39910;47.154;27.614;2022-12-18T12:56:16;102630.25;;;0.06;100.00
34738;BME280;39910;47.154;27.614;2022-12-18T12:59:01;102624.66;;;0.16;100.00
34738;BME280;39910;47.154;27.614;2022-12-18T13:01:41;102639.69;;;0.10;100.00
34738;BME280;39910;47.154;27.614;2022-12-18T13:09:33;102655.41;;;0.08;100.00
34738;BME280;39910;47.154;27.614;2022-12-18T13:12:05;102658.06;;;-0.18;100.00
34738;BME280;39910;47.154;27.614;2022-12-18T13:14:53;102665.88;;;-0.18;100.00
34738;BME280;39910;47.154;27.614;2022-12-18T13:17:36;102664.13;;;-0.18;100.00
34738;BME280;39910;47.154;27.614;2022-12-18T13:22:35;102672.44;;;-0.07;100.00
34738;BME280;39910;47.154;27.614;2022-12-18T13:25:01;102680.31;;;-0.08;100.00
34738;BME280;39910;47.154;27.614;2022-12-18T13:41:01;102687.41;;;-0.38;100.00
34738;BME280;39910;47.154;27.614;2022-12-18T13:51:56;102710.47;;;-0.51;100.00
34738;BME280;39910;47.154;27.614;2022-12-18T13:54:32;102715.09;;;-0.61;100.00
34738;BME280;39910;47.154;27.614;2022-12-18T13:56:58;102719.69;;;-0.69;100.00
34738;BME280;39910;47.154;27.614;2022-12-18T13:59:35;102721.72;;;-0.50;100.00
34738;BME280;39910;47.154;27.614;2022-12-18T14:02:12;102716.91;;;-0.63;100.00
34738;BME280;39910;47.154;27.614;2022-12-18T14:04:38;102723.50;;;-0.51;100.00
34738;BME280;39910;47.154;27.614;2022-12-18T14:07:10;102723.03;;;-0.64;100.00
34738;BME280;39910;47.154;27.614;2022-12-18T14:09:42;102735.63;;;-0.51;100.00
34738;BME280;39910;47.154;27.614;2022-12-18T14:12:34;102731.91;;;-0.43;100.00
34738;BME280;39910;47.154;27.614;2022-12-18T14:18:37;102731.34;;;-0.52;100.00
34738;BME280;39910;47.154;27.614;2022-12-18T14:20:46;102746.84;;;-0.48;100.00
34738;BME280;39910;47.154;27.614;2022-12-18T14:25:55;102743.06;;;-0.39;100.00
34738;BME280;39910;47.154;27.614;2022-12-18T14:28:20;102752.91;;;-0.47;100.00
34738;BME280;39910;47.154;27.614;2022-12-18T14:30:49;102758.00;;;-0.43;100.00
34738;BME280;39910;47.154;27.614;2022-12-18T14:33:20;102764.44;;;-0.54;100.00
34738;BME280;39910;47.154;27.614;2022-12-18T14:36:03;102762.00;;;-0.61;100.00
34738;BME280;39910;47.154;27.614;2022-12-18T14:38:37;102764.47;;;-0.56;100.00
34738;BME280;39910;47.154;27.614;2022-12-18T14:41:04;102760.44;;;-0.66;100.00
34738;BME280;39910;47.154;27.614;2022-12-18T14:43:33;102771.59;;;-0.61;100.00
34738;BME280;39910;47.154;27.614;2022-12-18T14:45:59;102773.41;;;-0.63;100.00
34738;BME280;39910;47.154;27.614;2022-12-18T14:53:56;102787.78;;;-0.51;100.00
34738;BME280;39910;47.154;27.614;2022-12-18T14:56:31;102771.09;;;-0.72;100.00
34738;BME280;39910;47.154;27.614;2022-12-18T14:59:03;102784.13;;;-0.74;100.00